Time;durP1;ratioP1;P1;durP2;ratioP2;P2;SDS_P1;SDS_P2;PMS_P1;PMS_P2;Temp;Humidity;BMP_temperature;BMP_pressure;BME280_temperature;BME280_humidity;BME280_pressure;Samples;Min_cycle;Max_cycle;Signal;HPM_P1;HPM_P2
2021/11/02 00:01:06;;;;;;;64.17;42.63;;;;;;;6.66;77.03;99458.16;1734762;81;21373;-58
2021/11/02 00:03:34;;;;;;;52.57;37.37;;;;;;;6.65;77.01;99456.88;1734959;81;21076;-58
2021/11/02 00:06:00;;;;;;;52.43;38.90;;;;;;;6.63;77.01;99458.30;1732540;81;22166;-57
2021/11/02 00:08:27;;;;;;;53.80;38.50;;;;;;;6.63;77.07;99455.62;1677292;84;21203;-58
2021/11/02 00:10:53;;;;;;;50.53;35.43;;;;;;;6.61;77.08;99454.80;1725816;81;21142;-57
2021/11/02 00:13:25;;;;;;;52.43;35.83;;;;;;;6.62;77.07;99448.99;1717054;82;21394;-57
2021/11/02 00:16:00;;;;;;;44.47;32.80;;;;;;;6.65;77.12;99445.72;1716657;82;21110;-57
2021/11/02 00:18:29;;;;;;;50.05;39.03;;;;;;;6.67;77.02;99439.86;1715802;82;22680;-58
2021/11/02 00:21:03;;;;;;;57.23;40.47;;;;;;;6.68;76.99;99435.38;1715957;82;21043;-58
2021/11/02 00:25:04;;;;;;;57.33;41.33;;;;;;;6.73;76.93;99437.41;1867011;75;22484;-58
2021/11/02 00:27:27;;;;;;;59.33;42.80;;;;;;;6.67;76.90;99437.18;1836671;77;21075;-58
2021/11/02 00:29:54;;;;;;;61.50;41.73;;;;;;;6.66;76.89;99438.57;1839070;77;21515;-58
2021/11/02 00:32:21;;;;;;;57.07;39.63;;;;;;;6.64;76.86;99438.63;1832306;77;22677;-58
2021/11/02 00:34:47;;;;;;;53.90;40.33;;;;;;;6.63;76.86;99431.56;1818206;77;21039;-58
2021/11/02 00:37:14;;;;;;;53.90;37.93;;;;;;;6.63;76.88;99434.70;1781924;79;21547;-58
2021/11/02 00:39:41;;;;;;;52.10;37.87;;;;;;;6.61;76.86;99433.41;1751536;80;21406;-58
2021/11/02 00:42:08;;;;;;;50.10;36.50;;;;;;;6.62;76.91;99422.25;1749318;80;21371;-58
2021/11/02 00:44:36;;;;;;;48.47;36.67;;;;;;;6.63;76.92;99430.69;1779857;79;21665;-59
2021/11/02 00:47:06;;;;;;;49.90;37.23;;;;;;;6.64;76.90;99432.40;1781443;79;21471;-58
2021/11/02 00:49:32;;;;;;;53.90;39.50;;;;;;;6.65;76.89;99438.16;1747314;80;21435;-59
2021/11/02 00:51:59;;;;;;;54.80;41.53;;;;;;;6.65;76.91;99436.36;1783081;79;21146;-59
2021/11/02 00:54:25;;;;;;;57.40;42.63;;;;;;;6.65;76.85;99434.14;1779633;79;22574;-59
2021/11/02 00:56:51;;;;;;;61.63;43.47;;;;;;;6.65;76.85;99428.80;1780588;79;21099;-58
2021/11/02 00:59:18;;;;;;;57.63;41.00;;;;;;;6.63;76.88;99423.53;1780270;79;21068;-58
2021/11/02 01:01:44;;;;;;;50.27;37.77;;;;;;;6.63;76.92;99423.53;1751838;80;21448;-58
2021/11/02 01:04:11;;;;;;;51.13;35.93;;;;;;;6.63;76.93;99428.88;1783170;78;21049;-58
2021/11/02 01:06:39;;;;;;;53.33;37.10;;;;;;;6.61;77.04;99428.06;1781898;79;22013;-57
2021/11/02 01:09:06;;;;;;;47.07;35.67;;;;;;;6.62;77.11;99419.11;1752699;80;22300;-57
2021/11/02 01:11:34;;;;;;;44.07;34.80;;;;;;;6.64;77.19;99414.55;1784887;79;20917;-57
2021/11/02 01:14:00;;;;;;;55.83;39.10;;;;;;;6.66;77.27;99422.06;1780992;79;21433;-58
2021/11/02 01:16:28;;;;;;;52.57;38.57;;;;;;;6.68;77.32;99418.00;1780996;79;21226;-56
2021/11/02 01:18:55;;;;;;;57.97;41.77;;;;;;;6.68;77.34;99410.84;1780524;79;21694;-58
2021/11/02 01:21:22;;;;;;;61.10;44.23;;;;;;;6.68;77.38;99400.15;1753072;80;21103;-57
2021/11/02 01:23:49;;;;;;;61.07;41.80;;;;;;;6.65;77.46;99399.37;1756748;80;20927;-57
2021/11/02 01:26:15;;;;;;;52.30;38.47;;;;;;;6.62;77.50;99400.39;1791344;78;21407;-56
2021/11/02 01:28:42;;;;;;;52.13;37.80;;;;;;;6.59;77.60;99413.86;1771999;80;22024;-57
2021/11/02 01:31:08;;;;;;;52.97;38.47;;;;;;;6.58;77.73;99413.45;1761723;80;21540;-57
2021/11/02 01:33:35;;;;;;;56.60;39.20;;;;;;;6.58;77.80;99405.89;1790708;79;21282;-57
2021/11/02 01:36:03;;;;;;;50.00;37.87;;;;;;;6.58;77.91;99408.57;1789808;79;21318;-57
2021/11/02 01:38:29;;;;;;;55.03;37.63;;;;;;;6.59;78.01;99407.64;1791210;79;21561;-57
2021/11/02 01:40:58;;;;;;;48.27;34.47;;;;;;;6.60;78.08;99387.53;1789790;79;20901;-56
2021/11/02 01:43:24;;;;;;;51.93;36.43;;;;;;;6.62;78.12;99387.02;1758971;80;21174;-58
2021/11/02 01:45:51;;;;;;;51.50;39.90;;;;;;;6.64;78.13;99387.80;1789707;79;20874;-57
2021/11/02 01:48:22;;;;;;;57.13;40.63;;;;;;;6.64;78.13;99385.13;1758223;80;20989;-57
2021/11/02 01:50:48;;;;;;;61.07;40.60;;;;;;;6.64;78.17;99386.47;1790275;78;20985;-58
2021/11/02 01:53:16;;;;;;;58.00;40.07;;;;;;;6.64;78.19;99381.13;1789499;78;20965;-58
2021/11/02 01:55:42;;;;;;;54.40;39.33;;;;;;;6.63;78.19;99383.41;1777197;80;21115;-57
2021/11/02 01:58:11;;;;;;;51.93;39.27;;;;;;;6.62;78.20;99371.44;1760277;80;20958;-58
2021/11/02 02:00:37;;;;;;;49.97;36.87;;;;;;;6.60;78.23;99371.48;1790468;78;20956;-58
2021/11/02 02:03:34;;;;;;;50.10;36.47;;;;;;;6.60;78.32;99373.29;1763435;80;21135;-58
2021/11/02 02:06:22;;;;;;;48.37;34.57;;;;;;;6.59;78.38;99376.42;1780388;79;22159;-58
2021/11/02 02:09:24;;;;;;;50.90;36.07;;;;;;;6.59;78.46;99379.56;1782485;79;21172;-57
2021/11/02 02:12:16;;;;;;;46.93;36.50;;;;;;;6.59;78.57;99369.74;1775460;79;21097;-58
2021/11/02 02:14:58;;;;;;;49.67;35.83;;;;;;;6.62;78.63;99373.65;1775258;79;21072;-58
2021/11/02 02:17:32;;;;;;;49.00;37.57;;;;;;;6.63;78.67;99364.70;1773269;78;20974;-55
2021/11/02 02:20:07;;;;;;;52.80;40.65;;;;;;;6.64;78.70;99369.55;1779693;79;21056;-56
2021/11/02 02:22:43;;;;;;;60.40;42.33;;;;;;;6.63;78.70;99362.48;1780627;79;21057;-56
2021/11/02 02:25:32;;;;;;;53.20;38.47;;;;;;;6.62;78.75;99368.30;1775158;78;21356;-55
2021/11/02 02:28:17;;;;;;;52.53;38.30;;;;;;;6.59;78.83;99361.72;1742563;80;21451;-55
2021/11/02 02:31:05;;;;;;;48.83;36.47;;;;;;;6.60;78.83;99362.59;1762730;80;21045;-55
2021/11/02 02:33:41;;;;;;;50.10;35.50;;;;;;;6.58;78.85;99361.31;1779137;78;22153;-55
2021/11/02 02:36:08;;;;;;;50.87;37.03;;;;;;;6.58;78.93;99349.27;1757253;79;21780;-55
2021/11/02 02:38:40;;;;;;;50.97;36.13;;;;;;;6.59;78.98;99358.17;1756973;80;21131;-55
2021/11/02 02:41:06;;;;;;;51.03;35.67;;;;;;;6.60;79.02;99347.88;1765486;80;21843;-56
2021/11/02 02:43:35;;;;;;;50.20;39.20;;;;;;;6.60;79.09;99351.43;1764752;80;20988;-56
2021/11/02 02:46:01;;;;;;;59.20;40.53;;;;;;;6.62;79.16;99342.89;1789713;79;21033;-55
2021/11/02 02:48:28;;;;;;;56.00;41.80;;;;;;;6.62;79.13;99338.87;1757419;80;21152;-55
2021/11/02 02:50:57;;;;;;;58.70;40.77;;;;;;;6.60;79.10;99338.52;1786328;79;21103;-55
2021/11/02 02:53:25;;;;;;;59.30;41.90;;;;;;;6.57;79.21;99331.48;1755559;80;21522;-55
2021/11/02 02:55:54;;;;;;;52.53;38.73;;;;;;;6.59;79.29;99328.75;1788388;79;21016;-54
2021/11/02 02:58:23;;;;;;;54.40;38.73;;;;;;;6.60;79.28;99332.71;1788150;78;21084;-54
2021/11/02 03:00:50;;;;;;;46.97;35.63;;;;;;;6.60;79.29;99329.16;1786821;79;22712;-54
2021/11/02 03:03:17;;;;;;;48.50;35.70;;;;;;;6.59;79.26;99334.98;1767910;80;21051;-54
2021/11/02 03:05:44;;;;;;;46.00;34.13;;;;;;;6.60;79.29;99329.16;1768210;80;21123;-54
2021/11/02 03:08:11;;;;;;;49.57;36.37;;;;;;;6.62;79.32;99327.31;1731139;80;21225;-54
2021/11/02 03:10:38;;;;;;;48.70;36.70;;;;;;;6.65;79.36;99333.86;1769756;80;21406;-55
2021/11/02 03:13:10;;;;;;;54.93;40.70;;;;;;;6.66;79.37;99332.92;1770369;80;22260;-54
2021/11/02 03:49:23;;;;;;;56.43;41.73;;;;;;;6.59;79.68;99307.36;1771489;79;21643;-55
2021/11/02 03:57:22;;;;;;;50.07;37.57;;;;;;;6.52;79.66;99293.37;1786276;78;21000;-55
2021/11/02 04:25:45;;;;;;;49.20;37.57;;;;;;;6.54;80.13;99278.14;1761337;79;20942;-56
2021/11/02 04:28:12;;;;;;;47.93;35.17;;;;;;;6.52;80.18;99274.65;1754836;80;20870;-56
2021/11/02 05:20:19;;;;;;;53.15;36.95;;;;;;;6.67;81.07;99237.93;1757251;80;28292;-56
2021/11/02 05:49:31;;;;;;;50.20;35.23;;;;;;;6.80;81.72;99249.02;1698070;79;21337;-56
2021/11/02 05:59:52;;;;;;;48.53;33.57;;;;;;;6.80;81.59;99251.69;1780483;79;20190;-56
2021/11/02 06:02:33;;;;;;;50.03;34.30;;;;;;;6.78;81.61;99250.88;1780163;79;21032;-56
2021/11/02 06:10:48;;;;;;;46.37;32.10;;;;;;;6.77;81.75;99254.02;1782972;79;21959;-56
2021/11/02 06:29:28;;;;;;;50.00;34.20;;;;;;;6.79;81.79;99244.13;1782917;79;21085;-56
2021/11/02 06:31:58;;;;;;;50.97;35.23;;;;;;;6.78;81.82;99257.09;1749357;80;21306;-55
2021/11/02 06:34:35;;;;;;;51.13;34.97;;;;;;;6.78;81.88;99254.89;1783143;79;21119;-55
2021/11/02 06:39:56;;;;;;;46.83;33.57;;;;;;;6.79;81.97;99244.59;1756784;80;20891;-55
2021/11/02 06:48:11;;;;;;;47.62;32.95;;;;;;;6.85;81.98;99245.67;1750216;80;21088;-55
2021/11/02 06:53:29;;;;;;;48.73;31.73;;;;;;;6.90;82.00;99243.66;1754882;80;20996;-55
2021/11/02 06:56:29;;;;;;;49.47;32.70;;;;;;;6.95;81.97;99246.16;1753192;80;21144;-55
2021/11/02 07:20:51;;;;;;;40.57;27.73;;;;;;;6.95;82.06;99241.69;1755900;80;21044;-54
2021/11/02 07:26:17;;;;;;;39.85;27.60;;;;;;;7.01;82.18;99227.17;1732789;80;21022;-54
2021/11/02 08:47:11;;;;;;;21.53;16.33;;;;;;;7.31;82.81;99176.81;1773990;80;20965;-54
2021/11/02 08:49:41;;;;;;;22.83;18.10;;;;;;;7.32;82.78;99173.17;1772657;80;21364;-55
2021/11/02 08:52:06;;;;;;;22.97;18.80;;;;;;;7.32;82.75;99164.67;1739644;80;21070;-54
2021/11/02 08:54:35;;;;;;;22.67;18.43;;;;;;;7.32;82.79;99160.66;1771668;80;22583;-55
2021/11/02 08:57:01;;;;;;;21.27;16.57;;;;;;;7.34;82.82;99153.91;1757520;80;21085;-55
2021/11/02 08:59:27;;;;;;;20.40;16.30;;;;;;;7.37;82.87;99160.01;1782378;79;21079;-54
2021/11/02 09:01:58;;;;;;;17.32;15.48;;;;;;;7.40;82.89;99158.52;1785374;79;20886;-54
2021/11/02 09:04:30;;;;;;;23.57;15.95;;;;;;;7.43;82.84;99150.35;1750994;80;21478;-54
2021/11/02 09:07:01;;;;;;;21.07;15.60;;;;;;;7.45;82.85;99146.27;1757226;80;21832;-55
2021/11/02 09:09:40;;;;;;;21.17;17.03;;;;;;;7.46;82.88;99142.66;1754115;80;21071;-56
2021/11/02 09:12:08;;;;;;;20.20;17.33;;;;;;;7.47;82.87;99143.94;1756578;80;21069;-55
2021/11/02 09:14:37;;;;;;;22.30;16.05;;;;;;;7.47;82.82;99137.23;1758889;80;20973;-54
2021/11/02 09:17:06;;;;;;;17.17;14.60;;;;;;;7.45;82.72;99127.53;1758168;80;21036;-55
2021/11/02 09:19:37;;;;;;;17.57;13.30;;;;;;;7.45;82.73;99127.53;1758517;80;21783;-54
2021/11/02 09:22:05;;;;;;;21.00;14.25;;;;;;;7.44;82.86;99128.47;1758669;80;21024;-54
2021/11/02 09:24:33;;;;;;;14.35;12.90;;;;;;;7.47;82.95;99123.85;1757455;80;21032;-54
2021/11/02 09:26:59;;;;;;;13.27;11.87;;;;;;;7.50;82.92;99117.46;1756785;80;21071;-55
2021/11/02 09:29:26;;;;;;;14.43;12.88;;;;;;;7.53;82.92;99108.83;1757973;80;21397;-55
2021/11/02 09:31:56;;;;;;;14.67;12.20;;;;;;;7.59;83.00;99109.87;1757135;80;21519;-54
2021/11/02 09:34:24;;;;;;;14.98;13.48;;;;;;;7.65;82.92;99102.52;1756167;80;21613;-54
2021/11/02 09:37:20;;;;;;;14.45;13.05;;;;;;;7.68;82.92;99104.56;1756856;80;21096;-55
2021/11/02 09:39:49;;;;;;;15.55;14.05;;;;;;;7.68;82.67;99098.34;1757007;80;21064;-56
2021/11/02 09:43:17;;;;;;;12.93;10.78;;;;;;;7.66;82.72;99095.72;1755369;80;21371;-54
2021/11/02 09:46:09;;;;;;;12.78;11.48;;;;;;;7.64;82.82;99089.59;1758462;80;21012;-54
2021/11/02 09:49:09;;;;;;;10.43;9.45;;;;;;;7.68;82.92;99084.94;1755997;80;21481;-54
2021/11/02 09:52:09;;;;;;;12.65;11.35;;;;;;;7.70;82.89;99079.05;1757378;80;21049;-55
2021/11/02 09:55:02;;;;;;;12.40;11.15;;;;;;;7.71;82.92;99077.64;1757662;80;20989;-55
2021/11/02 09:57:40;;;;;;;12.37;10.90;;;;;;;7.73;82.94;99071.75;1757045;80;21560;-54
2021/11/02 10:00:32;;;;;;;12.43;11.30;;;;;;;7.76;82.99;99063.55;1758718;80;21472;-54
2021/11/02 10:03:18;;;;;;;15.60;14.03;;;;;;;7.82;83.05;99059.73;1758322;80;20973;-53
2021/11/02 10:06:14;;;;;;;15.32;13.30;;;;;;;7.84;82.94;99061.84;1757009;80;21025;-54
2021/11/02 10:09:08;;;;;;;16.00;13.80;;;;;;;7.85;82.99;99059.56;1758543;80;21123;-55
2021/11/02 10:11:58;;;;;;;16.70;14.90;;;;;;;7.84;82.97;99053.33;1755658;80;21046;-54
2021/11/02 10:14:47;;;;;;;16.42;14.53;;;;;;;7.83;82.96;99052.05;1755054;80;22634;-55
2021/11/02 10:17:59;;;;;;;14.33;12.75;;;;;;;7.82;83.04;99036.48;1755898;80;21017;-54
2021/11/02 10:20:48;;;;;;;15.18;12.82;;;;;;;7.78;83.01;99034.88;1717130;80;21087;-53
2021/11/02 10:23:41;;;;;;;13.18;11.93;;;;;;;7.77;83.21;99036.29;1757828;80;21136;-54
2021/11/02 10:26:34;;;;;;;11.10;10.08;;;;;;;7.78;83.38;99034.02;1756714;80;21064;-53
2021/11/02 10:29:42;;;;;;;13.88;11.03;;;;;;;7.80;83.48;99031.66;1760123;80;21517;-55
2021/11/02 10:32:15;;;;;;;10.63;9.63;;;;;;;7.84;83.57;99022.98;1762807;80;21104;-56
2021/11/02 10:35:05;;;;;;;9.63;8.68;;;;;;;7.84;83.59;99016.29;1759968;80;21108;-54
2021/11/02 10:37:49;;;;;;;10.18;9.13;;;;;;;7.83;83.66;99012.73;1762555;80;20906;-54
2021/11/02 10:40:36;;;;;;;10.38;8.50;;;;;;;7.83;83.73;99007.38;1736591;80;20986;-54
2021/11/02 10:43:26;;;;;;;10.10;9.08;;;;;;;7.86;83.87;99003.22;1789351;79;22266;-54
2021/11/02 10:46:06;;;;;;;9.60;8.58;;;;;;;7.89;83.94;98999.06;1756088;80;20910;-54
2021/11/02 10:48:48;;;;;;;15.75;12.33;;;;;;;7.94;83.94;98990.31;1773333;79;20993;-54
2021/11/02 10:51:39;;;;;;;10.30;9.23;;;;;;;7.96;83.88;98979.52;1789722;79;20949;-56
2021/11/02 10:54:27;;;;;;;12.93;9.75;;;;;;;7.99;83.80;98984.74;1762006;80;21337;-54
2021/11/02 10:57:25;;;;;;;10.15;9.20;;;;;;;7.99;83.76;98979.38;1762031;80;21320;-55
2021/11/02 10:59:52;;;;;;;9.05;7.45;;;;;;;7.97;83.69;98971.41;1762169;80;20921;-55
2021/11/02 11:02:28;;;;;;;7.67;6.87;;;;;;;7.94;83.63;98972.89;1710038;80;21041;-54
2021/11/02 11:04:58;;;;;;;6.03;5.53;;;;;;;7.91;83.73;98968.18;1762785;80;21439;-54
2021/11/02 11:07:35;;;;;;;7.53;6.80;;;;;;;7.92;83.90;98964.53;1762764;80;20941;-54
2021/11/02 11:10:05;;;;;;;6.42;5.92;;;;;;;7.97;83.93;98961.16;1760057;80;21135;-54
2021/11/02 11:12:34;;;;;;;7.70;7.03;;;;;;;8.00;83.78;98962.33;1760204;80;20895;-55
2021/11/02 11:15:04;;;;;;;5.65;5.17;;;;;;;7.99;83.83;98950.73;1762813;80;20981;-54
2021/11/02 11:17:34;;;;;;;6.50;5.78;;;;;;;7.97;83.82;98944.61;1760878;80;21243;-54
2021/11/02 11:20:12;;;;;;;7.08;6.25;;;;;;;7.97;83.88;98941.94;1760938;80;21107;-55
2021/11/02 11:22:44;;;;;;;6.65;5.62;;;;;;;7.98;83.93;98936.11;1761210;80;21169;-55
2021/11/02 11:25:22;;;;;;;5.80;5.35;;;;;;;8.01;83.94;98937.27;1761595;80;21396;-54
2021/11/02 11:27:56;;;;;;;5.58;5.08;;;;;;;8.01;83.83;98934.59;1748390;80;21084;-55
2021/11/02 11:30:34;;;;;;;;;;;;;;;8.01;84.04;98934.59;1744126;81;21446;-54
2021/11/02 11:33:07;;;;;;;7.00;5.17;;;;;;;8.06;84.13;98936.58;1740419;82;20194;-55
2021/11/02 11:35:37;;;;;;;5.87;5.37;;;;;;;8.12;84.18;98921.52;1738738;82;21119;-54
2021/11/02 11:38:05;;;;;;;5.42;5.03;;;;;;;8.17;84.19;98914.56;1738405;82;21112;-54
2021/11/02 11:40:37;;;;;;;5.17;4.80;;;;;;;8.22;84.16;98916.08;1744715;80;21542;-54
2021/11/02 11:43:07;;;;;;;5.35;4.95;;;;;;;8.28;84.15;98913.55;1739365;82;21093;-55
2021/11/02 11:45:37;;;;;;;7.55;6.85;;;;;;;8.33;84.09;98912.88;1737566;82;21112;-55
2021/11/02 11:48:21;;;;;;;8.50;7.70;;;;;;;8.33;83.94;98904.37;1741254;82;21132;-54
2021/11/02 11:50:45;;;;;;;7.15;6.45;;;;;;;8.35;83.86;98910.49;1739235;82;21131;-54
2021/11/02 11:53:16;;;;;;;7.10;6.53;;;;;;;8.35;83.83;98906.94;1739593;82;21116;-55
2021/11/02 11:55:45;;;;;;;6.97;6.47;;;;;;;8.33;83.78;98908.86;1740937;82;21064;-55
2021/11/02 11:58:23;;;;;;;5.62;5.22;;;;;;;8.30;83.67;98906.30;1741764;82;21093;-55
2021/11/02 12:01:09;;;;;;;5.20;4.80;;;;;;;8.28;83.82;98901.48;1737104;82;21043;-54
2021/11/02 12:04:10;;;;;;;6.58;5.08;;;;;;;8.28;83.88;98893.44;1741431;82;21100;-55
2021/11/02 12:07:05;;;;;;;5.28;4.87;;;;;;;8.30;83.86;98898.25;1741930;82;22197;-55
2021/11/02 12:09:42;;;;;;;6.97;5.60;;;;;;;8.34;83.94;98893.14;1738231;80;21096;-54
2021/11/02 12:12:08;;;;;;;8.03;7.33;;;;;;;8.35;83.78;98894.41;1740605;82;21136;-52
2021/11/02 12:14:35;;;;;;;8.68;6.90;;;;;;;8.37;83.77;98897.48;1741448;82;21162;-54
2021/11/02 12:17:01;;;;;;;11.45;10.03;;;;;;;8.34;83.66;98896.69;1742661;82;21068;-53
2021/11/02 12:19:41;;;;;;;10.93;10.00;;;;;;;8.31;83.66;98906.25;1743576;80;21463;-53
2021/11/02 12:22:13;;;;;;;11.38;10.30;;;;;;;8.29;83.66;98906.77;1740382;82;21299;-54
2021/11/02 12:24:41;;;;;;;9.60;7.75;;;;;;;8.27;83.64;98905.10;1741373;82;21399;-54
2021/11/02 12:27:18;;;;;;;6.87;6.28;;;;;;;8.27;83.74;98909.13;1745188;80;21135;-54
2021/11/02 12:29:47;;;;;;;9.63;7.85;;;;;;;8.28;83.80;98897.45;1762605;80;21419;-54
2021/11/02 12:32:18;;;;;;;8.15;7.37;;;;;;;8.27;83.76;98897.93;1761694;80;21258;-54
2021/11/02 12:34:57;;;;;;;6.90;6.20;;;;;;;8.27;83.77;98903.29;1757026;80;21740;-53
2021/11/02 12:37:20;;;;;;;6.78;6.08;;;;;;;8.27;83.89;98897.93;1732684;80;21405;-54
2021/11/02 12:42:05;;;;;;;7.10;6.40;;;;;;;8.34;83.87;98883.75;1867162;75;22570;-54
2021/11/02 12:44:34;;;;;;;6.55;5.95;;;;;;;8.28;83.79;98883.58;1839847;77;21453;-54
2021/11/02 12:47:06;;;;;;;6.35;5.85;;;;;;;8.26;83.81;98878.77;1836771;77;21109;-54
2021/11/02 12:49:52;;;;;;;5.33;4.92;;;;;;;8.26;83.86;98878.77;1835525;77;20961;-54
2021/11/02 12:52:20;;;;;;;5.28;4.78;;;;;;;8.26;83.88;98877.42;1837589;77;21049;-54
2021/11/02 12:55:12;;;;;;;5.70;5.20;;;;;;;8.27;83.92;98881.84;1843104;77;21311;-54
2021/11/02 12:57:47;;;;;;;6.03;4.45;;;;;;;8.28;83.95;98880.03;1819441;77;21064;-54
2021/11/02 13:00:24;;;;;;;4.90;4.50;;;;;;;8.27;84.01;98879.63;1841264;77;22104;-54
2021/11/02 13:02:53;;;;;;;4.83;4.42;;;;;;;8.28;84.04;98885.39;1841073;77;20957;-54
2021/11/02 13:05:25;;;;;;;3.67;3.37;;;;;;;8.28;84.07;98876.88;1834907;77;21040;-54
2021/11/02 13:08:17;;;;;;;2.95;2.75;;;;;;;8.30;84.08;98883.50;1839949;77;20911;-54
2021/11/02 13:10:41;;;;;;;4.22;3.83;;;;;;;8.28;84.08;98880.03;1834763;77;21013;-54
2021/11/02 13:13:13;;;;;;;5.35;3.47;;;;;;;8.28;84.10;98871.52;1838948;77;22200;-53
2021/11/02 13:18:55;;;;;;;4.70;4.40;;;;;;;8.31;84.17;98873.21;1869634;75;21968;-54
2021/11/02 13:21:31;;;;;;;4.08;3.75;;;;;;;8.26;84.14;98868.52;1849361;77;20980;-54
2021/11/02 13:24:16;;;;;;;3.45;3.22;;;;;;;8.26;84.18;98869.38;1843581;77;21137;-55
2021/11/02 13:26:48;;;;;;;3.90;3.17;;;;;;;8.26;84.24;98865.83;1840858;77;21542;-54
2021/11/02 13:29:23;;;;;;;2.12;2.02;;;;;;;8.26;84.28;98857.31;1778438;78;21033;-54
2021/11/02 13:31:54;;;;;;;3.02;2.65;;;;;;;8.25;84.35;98855.58;1774713;78;21419;-54
2021/11/02 13:34:39;;;;;;;2.17;2.08;;;;;;;8.26;84.37;98853.30;1781659;79;21012;-54
2021/11/02 13:37:14;;;;;;;2.92;2.37;;;;;;;8.28;84.44;98863.47;1757085;79;21220;-54
2021/11/02 13:39:58;;;;;;;4.33;2.70;;;;;;;8.32;84.48;98862.41;1759185;79;21438;-54
2021/11/02 13:42:48;;;;;;;2.42;2.22;;;;;;;8.34;84.47;98863.17;1757948;79;21453;-54
2021/11/02 13:45:19;;;;;;;1.90;1.80;;;;;;;8.38;84.42;98859.00;1756143;79;21047;-54
2021/11/02 13:47:47;;;;;;;2.65;2.45;;;;;;;8.39;84.37;98848.66;1755678;79;21090;-54
2021/11/02 13:50:13;;;;;;;2.80;2.60;;;;;;;8.42;84.45;98841.81;1757828;79;23343;-54
2021/11/02 13:52:41;;;;;;;3.47;3.17;;;;;;;8.43;84.40;98840.36;1758821;79;21665;-55
2021/11/02 13:55:09;;;;;;;4.92;3.52;;;;;;;8.43;84.32;98844.85;1757804;79;21035;-55
2021/11/02 13:57:36;;;;;;;2.33;2.22;;;;;;;8.41;84.34;98842.75;1756665;79;21074;-55
2021/11/02 14:00:07;;;;;;;2.55;2.35;;;;;;;8.39;84.26;98844.64;1756422;79;21617;-54
2021/11/02 14:02:37;;;;;;;2.08;1.98;;;;;;;8.35;84.30;98844.80;1756196;79;21771;-55
2021/11/02 14:05:04;;;;;;;2.58;2.35;;;;;;;8.34;84.37;98840.38;1757029;79;21308;-55
2021/11/02 14:07:32;;;;;;;1.80;1.70;;;;;;;8.32;84.44;98832.91;1756795;79;21027;-54
2021/11/02 14:10:05;;;;;;;2.08;1.92;;;;;;;8.32;84.54;98827.55;1757737;79;21098;-55
2021/11/02 14:13:05;;;;;;;2.17;2.07;;;;;;;8.39;84.53;98827.21;1771300;78;22543;-54
2021/11/02 14:15:32;;;;;;;3.17;2.98;;;;;;;8.35;84.54;98832.73;1747422;80;21476;-54
2021/11/02 14:18:10;;;;;;;3.58;3.27;;;;;;;8.35;84.54;98831.39;1754253;80;21385;-53
2021/11/02 14:20:40;;;;;;;5.40;3.20;;;;;;;8.37;84.57;98829.10;1753471;80;21511;-54
2021/11/02 14:23:38;;;;;;;3.27;3.08;;;;;;;8.37;84.55;98833.99;1716280;81;20913;-53
2021/11/02 14:26:29;;;;;;;3.77;3.55;;;;;;;8.40;84.64;98831.62;1720057;81;20978;-54
2021/11/02 14:28:59;;;;;;;3.47;3.17;;;;;;;8.41;84.69;98830.22;1719299;81;20902;-54
2021/11/02 14:31:43;;;;;;;3.80;3.40;;;;;;;8.43;84.63;98833.66;1700945;83;22068;-53
2021/11/02 14:34:30;;;;;;;3.42;3.22;;;;;;;8.44;84.67;98831.37;1677642;83;20978;-54
2021/11/02 14:37:18;;;;;;;3.60;3.30;;;;;;;8.49;84.77;98836.03;1664726;83;21132;-54
2021/11/02 14:40:08;;;;;;;4.67;4.25;;;;;;;8.51;84.68;98821.16;1678791;83;21092;-53
2021/11/02 14:42:43;;;;;;;5.33;4.80;;;;;;;8.50;84.64;98825.70;1675917;83;21082;-53
2021/11/02 14:45:13;;;;;;;5.70;5.08;;;;;;;8.50;84.64;98824.35;1671725;83;21536;-54
2021/11/02 14:47:41;;;;;;;7.25;5.45;;;;;;;8.50;84.57;98828.84;1672634;83;21067;-54
2021/11/02 14:50:34;;;;;;;6.87;5.35;;;;;;;8.49;84.51;98824.43;1677321;83;21138;-54
2021/11/02 14:53:15;;;;;;;5.28;4.78;;;;;;;8.50;84.54;98827.03;1676523;83;21680;-54
2021/11/02 14:55:51;;;;;;;5.75;5.17;;;;;;;8.49;84.57;98832.48;1675270;83;21115;-54
2021/11/02 14:58:42;;;;;;;6.12;5.50;;;;;;;8.48;84.58;98826.72;1677707;83;21128;-53
2021/11/02 15:01:23;;;;;;;7.37;6.67;;;;;;;8.49;84.64;98836.03;1677529;83;21382;-54
2021/11/02 15:04:00;;;;;;;6.33;5.30;;;;;;;8.50;84.65;98830.19;1659901;83;21145;-54
2021/11/02 15:06:35;;;;;;;8.70;5.85;;;;;;;8.53;84.78;98832.69;1665185;84;21491;-54
2021/11/02 15:09:09;;;;;;;7.35;6.65;;;;;;;8.54;84.70;98825.91;1676416;83;21775;-54
2021/11/02 15:11:37;;;;;;;9.88;8.98;;;;;;;8.56;84.70;98835.21;1669075;83;21850;-54
2021/11/02 15:14:07;;;;;;;11.80;9.78;;;;;;;8.54;84.68;98832.61;1663650;84;22569;-53
2021/11/02 15:16:34;;;;;;;9.85;8.98;;;;;;;8.54;84.70;98829.92;1660904;84;22356;-54
2021/11/02 15:19:04;;;;;;;7.67;6.97;;;;;;;8.54;84.65;98831.27;1611597;84;21069;-54
2021/11/02 15:21:41;;;;;;;8.55;6.97;;;;;;;8.54;84.63;98829.92;1661593;84;21054;-53
2021/11/02 15:24:18;;;;;;;9.78;8.43;;;;;;;8.54;84.69;98823.69;1658567;84;21520;-53
2021/11/02 15:27:01;;;;;;;8.83;6.78;;;;;;;8.54;84.69;98828.58;1689121;81;21083;-53
2021/11/02 15:29:49;;;;;;;8.13;7.33;;;;;;;8.56;84.71;98828.03;1702766;81;21089;-54
2021/11/02 15:32:21;;;;;;;8.05;7.33;;;;;;;8.58;84.87;98828.83;1706003;81;21513;-54
2021/11/02 15:34:54;;;;;;;7.30;6.58;;;;;;;8.62;84.76;98829.50;1706320;81;21128;-54
2021/11/02 15:37:31;;;;;;;7.53;6.78;;;;;;;8.60;84.68;98825.55;1703833;81;21767;-54
2021/11/02 15:40:01;;;;;;;8.18;7.47;;;;;;;8.62;84.69;98820.11;1702357;82;21057;-53
2021/11/02 15:42:45;;;;;;;9.23;8.33;;;;;;;8.61;84.68;98827.30;1672310;83;21428;-54
2021/11/02 15:45:19;;;;;;;11.55;9.25;;;;;;;8.61;84.69;98826.42;1702884;82;21092;-54
2021/11/02 15:47:49;;;;;;;;;;;;;;;8.60;84.70;98822.01;1697724;81;21062;-54
2021/11/02 15:50:26;;;;;;;9.73;7.70;;;;;;;8.59;84.72;98827.01;1701499;81;22899;-54
2021/11/02 15:53:04;;;;;;;7.03;6.47;;;;;;;8.57;84.76;98823.53;1665568;83;21053;-53
2021/11/02 15:55:31;;;;;;;8.68;7.85;;;;;;;8.58;84.83;98834.66;1703739;81;21109;-53
2021/11/02 15:58:02;;;;;;;8.58;7.67;;;;;;;8.58;84.85;98834.66;1704809;82;21121;-54
2021/11/02 16:00:31;;;;;;;11.73;9.58;;;;;;;8.61;84.99;98827.77;1711387;81;20890;-55
2021/11/02 16:02:58;;;;;;;12.13;9.63;;;;;;;8.65;84.98;98822.64;1669573;83;22048;-54
2021/11/02 16:05:27;;;;;;;10.78;8.85;;;;;;;8.65;84.89;98826.66;1709463;81;21701;-54
2021/11/02 16:07:55;;;;;;;10.63;8.98;;;;;;;8.66;84.83;98829.27;1698752;81;21519;-55
2021/11/02 16:10:32;;;;;;;9.30;7.87;;;;;;;8.66;84.78;98822.56;1701808;82;21081;-55
2021/11/02 16:13:06;;;;;;;11.28;9.23;;;;;;;8.66;84.78;98825.24;1700958;82;21109;-54
2021/11/02 16:15:35;;;;;;;14.33;9.95;;;;;;;8.66;84.89;98818.53;1693908;82;21128;-54
2021/11/02 16:18:17;;;;;;;10.43;9.43;;;;;;;8.65;84.89;98812.77;1692549;82;21054;-54
2021/11/02 16:20:44;;;;;;;19.95;15.60;;;;;;;8.65;84.87;98806.54;1664929;83;21562;-53
2021/11/02 16:23:14;;;;;;;32.48;24.20;;;;;;;8.64;84.82;98808.83;1691355;82;21735;-53
2021/11/02 16:25:48;;;;;;;34.67;24.50;;;;;;;8.62;84.82;98795.50;1696326;82;21062;-53
2021/11/02 16:28:30;;;;;;;32.03;25.52;;;;;;;8.62;84.83;98800.86;1689591;82;21077;-53
2021/11/02 16:31:08;;;;;;;28.00;22.90;;;;;;;8.61;84.87;98814.36;1695366;82;21038;-55
2021/11/02 16:33:43;;;;;;;23.52;20.88;;;;;;;8.61;84.98;98818.38;1698298;82;20884;-54
2021/11/02 16:36:30;;;;;;;17.77;15.63;;;;;;;8.63;85.12;98813.80;1696325;82;21338;-53
2021/11/02 16:38:59;;;;;;;15.45;12.23;;;;;;;8.64;85.12;98820.43;1697489;82;21070;-53
2021/11/02 16:41:27;;;;;;;15.18;12.33;;;;;;;8.68;85.17;98823.79;1692113;82;23336;-54
2021/11/02 16:44:07;;;;;;;14.60;12.73;;;;;;;8.67;85.14;98822.95;1690160;82;21093;-53
2021/11/02 16:46:47;;;;;;;31.15;18.92;;;;;;;8.67;85.12;98824.30;1694640;82;21074;-54
2021/11/02 16:49:21;;;;;;;89.80;41.18;;;;;;;8.66;85.14;98818.53;1701587;82;20876;-54
2021/11/02 16:52:04;;;;;;;;;;;;;;;8.67;85.14;98824.77;1689169;82;20915;-53
2021/11/02 16:54:40;;;;;;;98.37;43.75;;;;;;;8.67;85.15;98821.61;1695145;82;21154;-53
2021/11/02 16:57:17;;;;;;;97.85;46.95;;;;;;;8.65;85.19;98810.09;1700183;82;21512;-54
2021/11/02 17:00:05;;;;;;;103.12;45.00;;;;;;;8.65;85.25;98808.75;1695416;82;20910;-54
2021/11/02 17:02:45;;;;;;;74.75;34.23;;;;;;;8.65;85.32;98810.09;1702119;82;20887;-55